Time;durP1;ratioP1;P1;durP2;ratioP2;P2;SDS_P1;SDS_P2;PMS_P1;PMS_P2;Temp;Humidity;BMP_temperature;BMP_pressure;BME280_temperature;BME280_humidity;BME280_pressure;Samples;Min_cycle;Max_cycle;Signal;HPM_P1;HPM_P2
2023/05/05 00:02:20;;;;;;;8.90;4.43;;;10.80;99.90;;;;;;6236520;23;20024;-80
2023/05/05 00:04:46;;;;;;;13.00;4.57;;;10.70;99.90;;;;;;6238252;23;20448;-80
2023/05/05 00:07:12;;;;;;;10.18;4.07;;;10.70;99.90;;;;;;6237219;23;20027;-81
2023/05/05 00:09:38;;;;;;;10.32;4.50;;;10.70;99.90;;;;;;6211928;23;20344;-80
2023/05/05 00:12:04;;;;;;;11.05;4.75;;;10.70;99.90;;;;;;6237306;23;20463;-81
2023/05/05 00:14:29;;;;;;;12.90;4.70;;;10.60;99.90;;;;;;6237811;23;20390;-81
2023/05/05 00:16:55;;;;;;;13.32;4.85;;;10.60;99.90;;;;;;6236151;23;20333;-81
2023/05/05 00:19:21;;;;;;;12.52;4.68;;;10.60;99.90;;;;;;6237695;23;20095;-81
2023/05/05 00:21:47;;;;;;;14.60;4.38;;;10.50;99.90;;;;;;6236807;23;20038;-81
2023/05/05 00:24:12;;;;;;;11.63;5.45;;;10.50;99.90;;;;;;6240202;22;20024;-81
2023/05/05 00:26:38;;;;;;;13.50;5.05;;;10.50;99.90;;;;;;6237795;23;20024;-81
2023/05/05 00:29:04;;;;;;;12.57;4.85;;;10.70;99.90;;;;;;6236898;23;20388;-81
2023/05/05 00:31:29;;;;;;;14.30;4.78;;;10.40;99.90;;;;;;6211968;23;20027;-80
2023/05/05 00:33:55;;;;;;;11.45;5.07;;;10.30;99.90;;;;;;6238323;23;20012;-80
2023/05/05 00:36:21;;;;;;;11.70;5.20;;;10.40;99.90;;;;;;6235265;23;20082;-80
2023/05/05 00:38:47;;;;;;;10.02;4.80;;;10.30;99.90;;;;;;6212885;23;20012;-80
2023/05/05 00:41:12;;;;;;;13.80;5.38;;;10.30;99.90;;;;;;6237003;23;20024;-80
2023/05/05 00:43:38;;;;;;;13.35;4.22;;;10.30;99.90;;;;;;6238985;23;20377;-80
2023/05/05 00:46:13;;;;;;;11.30;4.75;;;10.20;99.90;;;;;;6237076;23;20019;-80
2023/05/05 00:48:39;;;;;;;11.68;4.28;;;10.20;99.90;;;;;;6237925;23;20453;-80
2023/05/05 00:51:08;;;;;;;9.27;5.05;;;10.20;99.90;;;;;;6210931;23;20019;-80
2023/05/05 00:53:34;;;;;;;11.73;4.88;;;10.20;99.90;;;;;;6237540;23;20016;-80
2023/05/05 00:56:00;;;;;;;9.38;4.15;;;10.30;99.90;;;;;;6237598;23;20012;-79
2023/05/05 00:58:27;;;;;;;15.07;5.45;;;10.20;99.90;;;;;;6235939;23;20016;-80
2023/05/05 01:00:53;;;;;;;12.88;4.75;;;10.20;99.90;;;;;;6237285;23;20055;-80
2023/05/05 01:03:19;;;;;;;12.73;4.95;;;10.10;99.90;;;;;;6237061;23;20437;-80
2023/05/05 01:06:08;;;;;;;11.98;5.03;;;10.10;99.90;;;;;;6236309;23;20024;-80
2023/05/05 01:08:43;;;;;;;12.98;5.03;;;10.10;99.90;;;;;;6237206;23;20016;-81
2023/05/05 01:11:19;;;;;;;10.95;4.93;;;10.10;99.90;;;;;;6236464;23;20027;-81
2023/05/05 01:13:50;;;;;;;12.15;5.18;;;10.10;99.90;;;;;;6237538;23;20012;-80
2023/05/05 01:16:21;;;;;;;16.50;5.75;;;10.00;99.90;;;;;;6236612;23;20085;-81
2023/05/05 01:18:53;;;;;;;14.48;4.93;;;10.00;99.90;;;;;;6236956;23;20030;-80
2023/05/05 01:21:22;;;;;;;13.85;5.22;;;9.90;99.90;;;;;;6236338;23;20098;-80
2023/05/05 01:24:08;;;;;;;15.75;5.40;;;9.90;99.90;;;;;;6238272;23;20524;-80
2023/05/05 01:27:04;;;;;;;15.65;5.00;;;9.90;99.90;;;;;;6236676;23;20016;-80
2023/05/05 01:29:40;;;;;;;10.15;4.90;;;9.90;99.90;;;;;;6211823;23;20016;-80
2023/05/05 01:32:11;;;;;;;12.65;5.88;;;9.90;99.90;;;;;;6235685;23;20396;-80
2023/05/05 01:34:44;;;;;;;12.75;5.30;;;9.80;99.90;;;;;;6237524;23;20432;-81
2023/05/05 01:37:17;;;;;;;11.02;4.80;;;9.80;99.90;;;;;;6236200;23;20015;-80
2023/05/05 01:39:43;;;;;;;;;;;9.80;99.90;;;;;;6236173;23;20328;-80
2023/05/05 01:42:13;;;;;;;9.98;5.03;;;9.80;99.90;;;;;;6237353;23;19915;-80
2023/05/05 01:44:42;;;;;;;14.60;5.22;;;9.70;99.90;;;;;;6239233;22;20418;-80
2023/05/05 01:47:12;;;;;;;11.13;5.32;;;9.70;99.90;;;;;;6236055;23;20022;-80
2023/05/05 01:49:39;;;;;;;12.13;4.63;;;9.70;99.90;;;;;;6237328;23;20051;-80
2023/05/05 01:52:08;;;;;;;13.80;5.57;;;10.00;99.90;;;;;;6236867;23;20016;-81
2023/05/05 01:54:34;;;;;;;12.70;5.07;;;9.70;99.90;;;;;;6235712;23;20026;-80
2023/05/05 01:57:03;;;;;;;14.27;5.63;;;9.70;99.90;;;;;;6211871;23;20054;-80
2023/05/05 01:59:30;;;;;;;11.30;5.30;;;9.70;99.90;;;;;;6237034;23;20425;-80
2023/05/05 02:01:57;;;;;;;12.75;5.72;;;9.70;99.90;;;;;;6235494;23;20020;-80
2023/05/05 02:04:25;;;;;;;21.25;5.45;;;9.70;99.90;;;;;;6211753;23;20023;-80
2023/05/05 02:06:53;;;;;;;11.93;4.80;;;9.60;99.90;;;;;;6235923;23;20082;-80
2023/05/05 02:09:20;;;;;;;12.43;5.18;;;9.70;99.90;;;;;;6236327;23;20035;-81
2023/05/05 02:11:46;;;;;;;13.57;6.00;;;9.60;99.90;;;;;;6236293;23;20352;-80
2023/05/05 02:14:13;;;;;;;13.48;5.60;;;9.60;99.90;;;;;;6238259;22;20020;-80
2023/05/05 02:16:41;;;;;;;11.68;5.90;;;9.60;99.90;;;;;;6210267;23;20275;-80
2023/05/05 02:19:08;;;;;;;13.60;5.53;;;9.70;99.90;;;;;;6212228;23;20051;-80
2023/05/05 02:21:33;;;;;;;11.18;5.45;;;9.80;99.90;;;;;;6235042;23;20024;-80
2023/05/05 02:24:00;;;;;;;10.55;5.13;;;9.70;99.90;;;;;;6237152;23;20024;-80
2023/05/05 02:26:28;;;;;;;16.88;5.70;;;9.80;99.90;;;;;;6236202;23;20020;-80
2023/05/05 02:29:02;;;;;;;13.48;5.40;;;9.70;99.90;;;;;;6210693;23;20016;-81
2023/05/05 02:31:29;;;;;;;12.85;5.22;;;9.70;99.90;;;;;;6235680;23;20016;-81
2023/05/05 02:33:58;;;;;;;12.32;5.95;;;9.70;99.90;;;;;;6212038;23;20357;-81
2023/05/05 02:36:28;;;;;;;13.50;5.82;;;9.70;99.90;;;;;;6234739;23;20024;-81
2023/05/05 02:39:00;;;;;;;11.98;5.43;;;9.70;99.90;;;;;;6237469;23;20289;-81
2023/05/05 02:41:28;;;;;;;15.05;5.32;;;9.70;99.90;;;;;;6210471;23;20363;-81
2023/05/05 02:43:55;;;;;;;10.60;5.03;;;9.70;99.90;;;;;;6238726;22;20016;-81
2023/05/05 02:46:20;;;;;;;11.10;5.57;;;9.70;99.90;;;;;;6210026;23;20479;-81
2023/05/05 02:48:46;;;;;;;11.98;5.03;;;9.70;99.90;;;;;;6212403;23;20020;-81
2023/05/05 02:51:11;;;;;;;9.95;4.80;;;9.70;99.90;;;;;;6209742;23;20467;-81
2023/05/05 02:53:38;;;;;;;12.63;5.32;;;9.70;99.90;;;;;;6212504;23;20016;-80
2023/05/05 02:56:18;;;;;;;12.68;5.35;;;9.70;99.90;;;;;;6238813;23;20020;-80
2023/05/05 02:58:53;;;;;;;12.40;5.50;;;9.80;99.90;;;;;;6238500;23;20099;-81
2023/05/05 03:01:34;;;;;;;13.52;5.45;;;9.70;99.90;;;;;;6212373;23;20095;-81
2023/05/05 03:04:06;;;;;;;12.13;5.53;;;9.70;99.90;;;;;;6212402;23;20043;-81
2023/05/05 03:06:39;;;;;;;13.15;5.28;;;9.70;99.90;;;;;;6237881;23;20444;-80
2023/05/05 03:09:10;;;;;;;10.57;5.07;;;9.80;99.90;;;;;;6239341;23;20032;-80
2023/05/05 03:11:46;;;;;;;12.23;5.32;;;9.80;99.90;;;;;;6236743;23;20020;-80
2023/05/05 03:14:17;;;;;;;14.27;5.90;;;9.80;99.90;;;;;;6213518;23;20429;-81
2023/05/05 03:16:44;;;;;;;13.23;5.00;;;9.80;99.90;;;;;;6238004;23;20555;-81
2023/05/05 03:19:12;;;;;;;10.73;4.95;;;9.80;99.90;;;;;;6212916;23;20038;-80
2023/05/05 03:21:39;;;;;;;11.10;4.97;;;10.10;99.90;;;;;;6237553;23;20020;-81
2023/05/05 03:24:15;;;;;;;11.43;5.10;;;9.80;99.90;;;;;;6239214;23;20020;-81
2023/05/05 03:26:42;;;;;;;12.27;5.20;;;9.70;99.90;;;;;;6212011;23;20039;-81
2023/05/05 03:29:08;;;;;;;13.23;5.03;;;10.00;99.90;;;;;;6238601;23;20012;-81
2023/05/05 03:31:34;;;;;;;9.32;4.50;;;9.60;99.90;;;;;;6236244;23;20020;-81
2023/05/05 03:34:00;;;;;;;15.13;5.10;;;9.60;99.90;;;;;;6239064;23;20056;-81
2023/05/05 03:36:27;;;;;;;9.02;4.43;;;9.60;99.90;;;;;;6236530;23;20317;-81
2023/05/05 03:38:52;;;;;;;9.13;4.82;;;9.60;99.90;;;;;;6238149;23;20020;-81
2023/05/05 03:41:20;;;;;;;18.23;5.13;;;9.70;99.90;;;;;;6237592;23;20023;-81
2023/05/05 03:43:46;;;;;;;13.70;4.82;;;9.60;99.90;;;;;;6238833;23;20050;-81
2023/05/05 03:46:12;;;;;;;9.70;4.75;;;9.60;99.90;;;;;;6237021;23;20417;-81
2023/05/05 03:48:37;;;;;;;11.98;4.55;;;9.60;99.90;;;;;;6238161;23;20024;-81
2023/05/05 03:51:03;;;;;;;11.65;4.40;;;9.60;99.90;;;;;;6237821;23;20012;-81
2023/05/05 03:53:29;;;;;;;9.65;5.00;;;9.70;99.90;;;;;;6238747;23;20127;-81
2023/05/05 03:55:55;;;;;;;9.48;4.50;;;9.70;99.90;;;;;;6212857;23;20023;-81
2023/05/05 03:58:20;;;;;;;20.95;5.47;;;9.70;99.90;;;;;;6238043;23;20035;-81
2023/05/05 04:00:46;;;;;;;15.35;5.28;;;9.70;99.90;;;;;;6236359;23;20310;-81
2023/05/05 04:03:12;;;;;;;10.63;5.05;;;9.70;99.90;;;;;;6238272;23;20055;-81
2023/05/05 04:05:37;;;;;;;13.32;4.65;;;9.80;99.90;;;;;;6211519;23;20387;-81
2023/05/05 04:08:03;;;;;;;12.48;5.03;;;9.80;99.90;;;;;;6237766;23;20067;-80
2023/05/05 04:10:29;;;;;;;15.10;4.60;;;9.90;99.90;;;;;;6238028;23;20023;-81
2023/05/05 04:12:55;;;;;;;10.18;4.63;;;9.90;99.90;;;;;;6238017;23;20020;-80
2023/05/05 04:15:21;;;;;;;8.68;4.28;;;10.20;99.90;;;;;;6236897;23;20020;-81
2023/05/05 04:17:46;;;;;;;11.13;4.20;;;10.00;99.90;;;;;;6237225;23;20073;-80
2023/05/05 04:20:12;;;;;;;11.25;4.07;;;10.10;99.90;;;;;;6237405;23;20020;-80
2023/05/05 04:22:38;;;;;;;9.73;4.57;;;10.20;99.90;;;;;;6238881;23;20103;-80
2023/05/05 04:25:04;;;;;;;10.30;4.28;;;10.30;99.90;;;;;;6239776;23;20016;-81
2023/05/05 04:27:29;;;;;;;11.35;4.25;;;10.40;99.90;;;;;;6237497;23;20601;-81
2023/05/05 04:29:55;;;;;;;8.55;4.03;;;10.40;99.90;;;;;;6236601;23;20095;-81
2023/05/05 04:32:21;;;;;;;9.02;3.97;;;10.40;99.90;;;;;;6235297;23;20445;-81
2023/05/05 04:34:47;;;;;;;8.30;4.32;;;10.40;99.90;;;;;;6237896;23;20024;-81
2023/05/05 04:37:13;;;;;;;9.85;4.18;;;10.40;99.90;;;;;;6236225;23;20074;-81
2023/05/05 04:39:40;;;;;;;13.20;4.45;;;10.40;99.90;;;;;;6237712;23;20012;-81
2023/05/05 04:42:06;;;;;;;8.90;4.15;;;10.50;99.90;;;;;;6236104;23;20020;-86
2023/05/05 04:44:32;;;;;;;10.85;4.32;;;10.40;99.90;;;;;;6211228;23;20012;-83
2023/05/05 04:46:59;;;;;;;12.85;4.90;;;10.40;99.90;;;;;;6212233;23;20453;-84
2023/05/05 04:49:28;;;;;;;9.32;5.05;;;10.40;99.90;;;;;;6210213;23;20022;-82
2023/05/05 04:51:53;;;;;;;13.23;5.07;;;10.40;99.90;;;;;;6211943;23;20023;-84
2023/05/05 04:56:45;;;;;;;11.48;5.00;;;10.30;99.90;;;;;;6237893;23;20020;-83
2023/05/05 04:59:11;;;;;;;15.85;4.93;;;10.20;99.90;;;;;;6211381;23;20074;-84
2023/05/05 05:01:36;;;;;;;14.00;4.95;;;10.20;99.90;;;;;;6211804;23;20027;-84
2023/05/05 05:04:03;;;;;;;19.45;5.93;;;10.20;99.90;;;;;;6211928;23;20012;-83
2023/05/05 05:06:29;;;;;;;11.50;5.15;;;10.10;99.90;;;;;;6210742;23;20150;-84
2023/05/05 05:08:55;;;;;;;13.80;5.65;;;10.10;99.90;;;;;;6213267;23;20514;-86
2023/05/05 05:11:21;;;;;;;15.00;5.72;;;10.00;99.90;;;;;;6211408;23;20397;-85
2023/05/05 05:13:46;;;;;;;21.08;5.88;;;10.10;99.90;;;;;;6238371;23;20197;-86
2023/05/05 05:16:12;;;;;;;14.98;6.50;;;10.00;99.90;;;;;;6208427;23;20332;-87
2023/05/05 05:18:38;;;;;;;9.95;5.70;;;9.90;99.90;;;;;;6213279;23;20081;-86
2023/05/05 05:21:04;;;;;;;14.68;6.35;;;9.80;99.90;;;;;;6214230;23;20398;-86
2023/05/05 05:23:30;;;;;;;14.65;6.50;;;9.80;99.90;;;;;;6213327;23;20028;-87
2023/05/05 05:25:56;;;;;;;12.70;5.72;;;9.80;99.90;;;;;;6214225;23;20054;-87
2023/05/05 05:28:22;;;;;;;11.35;5.90;;;9.80;99.90;;;;;;6213849;23;20012;-87
2023/05/05 05:30:48;;;;;;;13.20;6.05;;;9.70;99.90;;;;;;6212764;23;20023;-84
2023/05/05 05:33:13;;;;;;;17.67;6.82;;;9.70;99.90;;;;;;6211000;23;20016;-85
2023/05/05 05:35:39;;;;;;;15.88;6.10;;;9.70;99.90;;;;;;6236253;23;20026;-86
2023/05/05 05:38:05;;;;;;;9.35;5.65;;;9.60;99.90;;;;;;6212416;23;20023;-86
2023/05/05 05:40:31;;;;;;;14.90;5.35;;;9.60;99.90;;;;;;6211574;23;20020;-86
2023/05/05 05:42:57;;;;;;;13.75;6.82;;;9.60;99.90;;;;;;6237105;23;20361;-87
2023/05/05 05:45:30;;;;;;;13.27;6.03;;;9.60;99.90;;;;;;6210527;23;20487;-86
2023/05/05 05:47:56;;;;;;;19.33;6.10;;;9.10;99.90;;;;;;6235117;23;20020;-87
2023/05/05 05:50:23;;;;;;;14.98;5.88;;;9.80;99.90;;;;;;6234549;23;20070;-87
2023/05/05 05:52:49;;;;;;;12.88;6.00;;;9.80;99.90;;;;;;6209202;23;20020;-86
2023/05/05 05:55:14;;;;;;;10.00;6.05;;;9.90;99.90;;;;;;6209948;23;20016;-86
2023/05/05 05:57:41;;;;;;;10.43;5.32;;;10.00;99.90;;;;;;6209083;23;20023;-86
2023/05/05 06:00:07;;;;;;;14.07;5.97;;;10.00;99.90;;;;;;6209308;23;20458;-87
2023/05/05 06:02:33;;;;;;;10.75;5.65;;;10.00;99.90;;;;;;6211057;23;20027;-86
2023/05/05 06:04:59;;;;;;;11.63;6.35;;;10.10;99.90;;;;;;6211400;23;20286;-85
2023/05/05 06:07:27;;;;;;;16.08;6.68;;;10.20;99.90;;;;;;6235972;23;20505;-86
2023/05/05 06:09:53;;;;;;;9.40;5.57;;;10.40;99.90;;;;;;6215220;22;20016;-87
2023/05/05 06:12:19;;;;;;;11.18;5.78;;;10.60;99.90;;;;;;6218048;22;20023;-87
2023/05/05 06:14:45;;;;;;;9.70;5.60;;;10.60;99.90;;;;;;6243173;22;20020;-87
2023/05/05 06:17:10;;;;;;;11.45;5.72;;;10.80;99.90;;;;;;6242055;22;20016;-87
2023/05/05 06:19:38;;;;;;;16.77;6.70;;;10.90;99.90;;;;;;6242930;22;20016;-85
2023/05/05 06:22:04;;;;;;;11.88;6.28;;;10.90;99.90;;;;;;6240351;22;20015;-86
2023/05/05 06:24:33;;;;;;;15.43;5.95;;;11.00;99.90;;;;;;6242594;22;20426;-87
2023/05/05 06:27:01;;;;;;;11.50;6.18;;;11.00;99.90;;;;;;6216601;22;20023;-86
2023/05/05 06:29:27;;;;;;;10.07;5.32;;;11.10;99.90;;;;;;6243634;22;20011;-85
2023/05/05 06:31:53;;;;;;;14.38;5.72;;;11.10;99.90;;;;;;6218975;22;20535;-87
2023/05/05 06:34:25;;;;;;;16.35;6.10;;;11.20;99.90;;;;;;6218175;22;20149;-85
2023/05/05 06:36:50;;;;;;;11.13;5.80;;;11.20;99.90;;;;;;6244504;22;20023;-88
2023/05/05 06:39:19;;;;;;;11.95;5.53;;;11.40;99.90;;;;;;6245495;22;20022;-87
2023/05/05 06:41:45;;;;;;;9.55;5.03;;;11.00;99.90;;;;;;6219273;22;20023;-87
2023/05/05 06:44:30;;;;;;;12.00;5.60;;;11.80;99.90;;;;;;6219490;22;20016;-87
2023/05/05 06:47:02;;;;;;;11.85;5.35;;;11.90;99.90;;;;;;6219045;22;20099;-87
2023/05/05 06:49:28;;;;;;;11.73;6.15;;;12.00;99.90;;;;;;6243340;22;20022;-87
2023/05/05 06:51:57;;;;;;;11.40;5.78;;;12.00;99.90;;;;;;6219135;22;20334;-86
2023/05/05 06:54:23;;;;;;;14.45;5.55;;;12.00;99.90;;;;;;6219236;22;20015;-87
2023/05/05 06:57:00;;;;;;;11.57;5.50;;;11.90;99.90;;;;;;6219036;22;20168;-89
2023/05/05 06:59:33;;;;;;;9.23;5.18;;;11.40;99.90;;;;;;6243926;22;20024;-85
2023/05/05 07:02:09;;;;;;;8.30;5.22;;;12.00;99.90;;;;;;6218481;22;20015;-87
2023/05/05 07:04:38;;;;;;;9.63;5.18;;;11.70;99.90;;;;;;6216000;22;20030;-87
2023/05/05 07:07:04;;;;;;;14.77;5.55;;;12.00;99.90;;;;;;6240418;22;20019;-86
2023/05/05 07:09:30;;;;;;;13.35;6.35;;;12.00;99.90;;;;;;6216212;22;20026;-87
2023/05/05 07:11:55;;;;;;;14.95;6.25;;;12.00;99.90;;;;;;6209830;23;20078;-87
2023/05/05 07:14:30;;;;;;;10.95;6.25;;;12.10;99.90;;;;;;6210268;23;20378;-87
2023/05/05 07:16:56;;;;;;;13.13;6.38;;;12.10;99.90;;;;;;6209654;23;20393;-87
2023/05/05 07:44:01;;;;;;;;;;;;;;;;;;;;;
2023/05/05 07:53:31;;;;;;;11.63;5.80;;;13.60;99.90;;;;;;6264873;22;20027;-87
2023/05/05 07:56:59;;;;;;;;;;;;;;;;;;;;;
2023/05/05 07:59:49;;;;;;;13.93;6.03;;;13.80;99.90;;;;;;6177149;22;20091;-89
2023/05/05 08:03:06;;;;;;;18.05;6.43;;;13.90;99.90;;;;;;6219883;22;20451;-88
2023/05/05 08:08:48;;;;;;;11.38;5.65;;;14.20;99.90;;;;;;6142279;22;20031;-88
2023/05/05 08:12:14;;;;;;;10.45;5.80;;;14.00;99.90;;;;;;6142426;22;20024;-88
2023/05/05 08:15:08;;;;;;;;;;;;;;;;;;;;;
2023/05/05 08:32:59;;;;;;;13.38;7.10;;;14.80;99.90;;;;;;6074772;23;20016;-88
2023/05/05 08:35:40;;;;;;;13.07;6.95;;;15.00;99.90;;;;;;6193486;23;20024;-90
2023/05/05 08:38:29;;;;;;;16.48;7.55;;;15.10;99.90;;;;;;6168467;23;20024;-86
2023/05/05 08:41:00;;;;;;;13.32;6.93;;;15.20;99.90;;;;;;6178939;23;20016;-87
2023/05/05 08:43:51;;;;;;;13.07;7.43;;;15.30;99.90;;;;;;6188659;23;20780;-88
2023/05/05 08:50:41;;;;;;;;;;;;;;;;;;;;;
2023/05/05 08:53:34;;;;;;;;;;;;;;;;;;;;;
2023/05/05 08:56:48;;;;;;;14.77;7.30;;;15.60;99.90;;;;;;6210785;23;20027;-88
2023/05/05 08:59:55;;;;;;;14.38;7.32;;;15.70;99.90;;;;;;6207903;23;20015;-88
2023/05/05 09:02:31;;;;;;;13.50;7.85;;;15.80;99.90;;;;;;6227067;23;20024;-88
2023/05/05 09:05:03;;;;;;;12.85;7.50;;;15.90;99.90;;;;;;6213266;23;20024;-86
2023/05/05 09:07:49;;;;;;;14.27;8.23;;;16.00;99.90;;;;;;6216145;23;20100;-86
2023/05/05 09:14:26;;;;;;;11.60;8.60;;;16.30;99.90;;;;;;6108472;23;20028;-86
2023/05/05 09:17:28;;;;;;;11.82;8.18;;;16.30;99.90;;;;;;6203597;23;20024;-86
2023/05/05 09:20:19;;;;;;;16.65;9.70;;;16.30;99.90;;;;;;6239301;23;20078;-86
2023/05/05 09:31:14;;;;;;;;;;;;;;;;;;;;;
2023/05/05 09:34:51;;;;;;;15.70;8.88;;;16.80;99.90;;;;;;6238485;23;20133;-86
2023/05/05 09:38:37;;;;;;;15.70;8.98;;;16.90;99.90;;;;;;6147577;23;20047;-86
2023/05/05 09:41:14;;;;;;;15.63;9.60;;;16.90;99.90;;;;;;6203941;23;20028;-86
2023/05/05 09:44:17;;;;;;;;;;;;;;;;;;;;;
2023/05/05 09:47:47;;;;;;;14.02;9.57;;;17.00;99.90;;;;;;6237535;23;20118;-86
2023/05/05 09:50:38;;;;;;;17.73;9.48;;;17.80;99.90;;;;;;6143863;22;20471;-86
2023/05/05 09:54:21;;;;;;;11.25;8.88;;;17.60;99.90;;;;;;6247974;23;20089;-86
2023/05/05 09:56:39;;;;;;;;;;;17.10;99.90;;;;;;6225991;23;20020;-86
2023/05/05 09:59:52;;;;;;;12.88;10.13;;;17.80;99.90;;;;;;6212447;23;20336;-86
2023/05/05 10:09:20;;;;;;;16.13;10.50;;;17.40;99.90;;;;;;6224578;22;20024;-86
2023/05/05 10:14:35;;;;;;;19.13;10.60;;;17.20;99.90;;;;;;6083389;23;20017;-90
2023/05/05 10:17:45;;;;;;;12.90;10.25;;;17.10;99.90;;;;;;6182240;23;20020;-87
2023/05/05 10:24:13;;;;;;;15.38;10.38;;;17.10;99.90;;;;;;6099019;23;20040;-87
2023/05/05 10:27:35;;;;;;;12.98;10.60;;;17.50;99.90;;;;;;6209241;23;20023;-87
2023/05/05 10:30:51;;;;;;;21.40;10.52;;;17.80;99.90;;;;;;6188813;23;20039;-86
2023/05/05 10:36:41;;;;;;;13.82;10.48;;;18.50;99.90;;;;;;6109556;23;20020;-87
2023/05/05 10:42:23;;;;;;;17.90;10.20;;;18.80;99.90;;;;;;6273616;22;20023;-96
2023/05/05 10:45:27;;;;;;;14.00;10.32;;;18.90;99.90;;;;;;6218073;22;20035;-95
2023/05/05 10:53:58;;;;;;;17.10;11.20;;;19.40;99.90;;;;;;6255814;22;20337;-96
2023/05/05 10:57:37;;;;;;;15.13;11.60;;;19.60;99.90;;;;;;6251992;22;20030;-96
2023/05/05 11:01:06;;;;;;;15.15;11.82;;;19.90;99.90;;;;;;6250759;22;20068;-93
2023/05/05 11:04:18;;;;;;;15.30;12.35;;;19.60;99.90;;;;;;6220148;22;20074;-95
2023/05/05 11:07:11;;;;;;;17.85;12.20;;;19.50;99.90;;;;;;6163314;22;20015;-96
2023/05/05 11:10:08;;;;;;;;;;;19.60;99.90;;;;;;6223867;22;20502;-96
2023/05/05 11:13:11;;;;;;;16.42;13.07;;;19.60;99.90;;;;;;6224662;22;20278;-96
2023/05/05 11:16:55;;;;;;;19.38;13.27;;;20.00;99.90;;;;;;6249524;22;20035;-95
2023/05/05 11:27:16;;;;;;;17.30;13.57;;;20.50;99.90;;;;;;6143472;22;20024;-96
2023/05/05 11:30:24;;;;;;;19.77;13.15;;;20.70;99.90;;;;;;6251400;22;20043;-95
2023/05/05 11:33:35;;;;;;;16.38;13.23;;;20.50;99.90;;;;;;6202974;22;20019;-95
2023/05/05 11:36:23;;;;;;;20.75;13.85;;;20.50;99.90;;;;;;6218070;23;20480;-95
2023/05/05 11:39:23;;;;;;;18.35;12.00;;;20.80;99.90;;;;;;6242642;22;20058;-96
2023/05/05 11:42:22;;;;;;;17.50;12.95;;;20.50;99.90;;;;;;6217566;23;20020;-95
2023/05/05 11:45:52;;;;;;;18.38;13.90;;;20.20;99.90;;;;;;6224648;22;20004;-95
2023/05/05 11:51:49;;;;;;;18.65;13.82;;;20.20;99.90;;;;;;6247386;22;20059;-95
2023/05/05 11:57:44;;;;;;;15.38;10.55;;;20.40;99.90;;;;;;6208937;23;20035;-95
2023/05/05 12:00:34;;;;;;;20.13;12.48;;;20.60;99.90;;;;;;6187379;23;20477;-95
2023/05/05 12:03:52;;;;;;;;;;;;;;;;;;;;;
2023/05/05 12:07:12;;;;;;;19.90;13.27;;;20.60;99.90;;;;;;6187048;23;20020;-95
2023/05/05 12:10:08;;;;;;;14.85;12.02;;;20.40;99.90;;;;;;6201154;23;20468;-94
2023/05/05 12:13:45;;;;;;;14.07;11.00;;;20.30;99.90;;;;;;6167249;23;20450;-95
2023/05/05 12:20:03;;;;;;;16.92;10.52;;;20.50;99.90;;;;;;6131860;23;20036;-95
2023/05/05 12:23:19;;;;;;;12.88;8.88;;;20.30;99.90;;;;;;6186832;23;20039;-94
2023/05/05 12:26:28;;;;;;;15.20;9.38;;;20.40;99.90;;;;;;6210761;23;20035;-96
2023/05/05 12:29:49;;;;;;;14.57;9.68;;;20.40;99.90;;;;;;6211722;23;20623;-95
2023/05/05 12:32:24;;;;;;;19.08;13.63;;;20.50;99.90;;;;;;6110712;23;20024;-94
2023/05/05 12:35:30;;;;;;;15.30;12.25;;;20.40;99.90;;;;;;6192191;23;20058;-95
2023/05/05 12:41:31;;;;;;;16.42;10.35;;;20.30;99.90;;;;;;6173991;23;20393;-96
2023/05/05 12:45:19;;;;;;;17.02;10.25;;;20.30;99.90;;;;;;6183047;23;20452;-95
2023/05/05 12:47:57;;;;;;;14.35;10.38;;;20.00;99.90;;;;;;6200162;23;20343;-95
2023/05/05 12:51:01;;;;;;;19.38;10.48;;;19.80;99.90;;;;;;6192106;23;20640;-95
2023/05/05 12:54:18;;;;;;;16.30;10.00;;;19.60;99.90;;;;;;6208861;23;20066;-94
2023/05/05 12:57:49;;;;;;;19.55;11.32;;;19.20;99.90;;;;;;6242372;23;20034;-96
2023/05/05 13:02:04;;;;;;;19.10;11.40;;;19.10;99.90;;;;;;6131270;23;20033;-96
2023/05/05 13:04:38;;;;;;;18.30;11.23;;;18.90;99.90;;;;;;6164758;23;20036;-96
2023/05/05 13:11:23;;;;;;;17.27;12.93;;;18.60;99.90;;;;;;6162848;23;20119;-95
2023/05/05 13:14:36;;;;;;;23.67;14.35;;;18.60;99.90;;;;;;6157394;23;20017;-95
2023/05/05 13:22:04;;;;;;;15.27;9.00;;;18.30;99.90;;;;;;6203432;22;20056;-95
2023/05/05 13:25:01;;;;;;;15.15;9.23;;;18.20;99.90;;;;;;6236243;22;20162;-95
2023/05/05 13:28:09;;;;;;;17.17;8.52;;;18.00;99.90;;;;;;6168655;23;20016;-95
2023/05/05 13:34:39;;;;;;;10.35;7.10;;;17.50;99.90;;;;;;6121527;23;20032;-94
2023/05/05 13:37:20;;;;;;;17.70;10.30;;;17.30;99.90;;;;;;6239892;22;20063;-94
2023/05/05 13:40:50;;;;;;;18.67;12.88;;;17.20;99.90;;;;;;6242625;23;20042;-94
2023/05/05 13:44:16;;;;;;;21.98;13.57;;;16.80;99.90;;;;;;6242213;23;20020;-93
2023/05/05 13:47:08;;;;;;;17.90;12.85;;;16.70;99.90;;;;;;6243741;23;20016;-94
2023/05/05 13:49:43;;;;;;;20.85;12.82;;;16.60;99.90;;;;;;6207845;23;20035;-94
2023/05/05 13:52:46;;;;;;;22.30;13.35;;;16.60;99.90;;;;;;6219190;22;20076;-94
2023/05/05 13:55:36;;;;;;;11.23;5.80;;;16.40;99.90;;;;;;6225378;22;20029;-87
2023/05/05 13:58:02;;;;;;;10.70;6.28;;;16.10;99.90;;;;;;6218945;22;20038;-85
2023/05/05 14:00:28;;;;;;;16.27;7.90;;;15.90;99.90;;;;;;6218622;22;20016;-84
2023/05/05 14:02:54;;;;;;;17.08;8.70;;;15.80;99.90;;;;;;6219874;22;20020;-86
2023/05/05 14:05:20;;;;;;;15.93;9.75;;;15.70;99.90;;;;;;6242692;22;20098;-85
2023/05/05 14:07:46;;;;;;;16.30;8.48;;;15.60;99.90;;;;;;6218867;22;20092;-86
2023/05/05 14:10:12;;;;;;;16.48;8.35;;;15.50;99.90;;;;;;6218836;22;20019;-86
2023/05/05 14:12:38;;;;;;;13.65;7.82;;;15.50;99.90;;;;;;6216961;22;20030;-84
2023/05/05 14:15:05;;;;;;;12.10;8.20;;;15.40;99.90;;;;;;6217790;22;20098;-84
2023/05/05 14:17:31;;;;;;;16.13;8.30;;;15.30;99.90;;;;;;6215853;22;20541;-85
2023/05/05 14:19:57;;;;;;;11.07;7.78;;;15.20;99.90;;;;;;6217627;22;20031;-85
2023/05/05 14:22:23;;;;;;;11.32;7.57;;;15.20;99.90;;;;;;6217920;22;20019;-89
2023/05/05 14:24:49;;;;;;;12.32;6.93;;;15.10;99.90;;;;;;6218203;22;20430;-86
2023/05/05 14:27:15;;;;;;;13.88;6.82;;;15.10;99.90;;;;;;6243130;22;20020;-84
2023/05/05 14:29:41;;;;;;;10.98;6.70;;;15.00;99.90;;;;;;6216370;22;20020;-84
2023/05/05 14:32:06;;;;;;;12.82;5.88;;;15.00;99.90;;;;;;6216626;22;20039;-85
2023/05/05 14:34:32;;;;;;;10.70;5.40;;;14.90;99.90;;;;;;6241724;22;20053;-87
2023/05/05 14:36:58;;;;;;;11.65;5.57;;;14.90;99.90;;;;;;6242313;22;20023;-85
2023/05/05 14:39:24;;;;;;;12.00;5.38;;;14.80;99.90;;;;;;6242343;22;20016;-85
2023/05/05 14:41:59;;;;;;;10.20;4.38;;;14.80;99.90;;;;;;6217927;22;20070;-85
2023/05/05 14:44:25;;;;;;;11.23;5.43;;;14.80;99.90;;;;;;6242621;22;20417;-85
2023/05/05 14:46:51;;;;;;;10.88;3.97;;;14.80;99.90;;;;;;6215788;22;20015;-86
2023/05/05 14:49:17;;;;;;;6.80;4.00;;;14.80;99.90;;;;;;6244176;22;20019;-84
2023/05/05 14:51:43;;;;;;;10.63;3.90;;;14.80;99.90;;;;;;6219333;22;20047;-87
2023/05/05 14:54:08;;;;;;;8.57;3.90;;;14.90;99.90;;;;;;6245095;22;20008;-87
2023/05/05 14:56:34;;;;;;;10.00;3.80;;;14.90;99.90;;;;;;6214122;23;20456;-87
2023/05/05 14:59:00;;;;;;;14.35;4.18;;;14.90;99.90;;;;;;6240637;23;20016;-86
2023/05/05 15:01:26;;;;;;;10.82;3.55;;;14.90;99.90;;;;;;6213868;23;20027;-86
2023/05/05 15:03:52;;;;;;;7.30;2.75;;;14.90;99.90;;;;;;6240248;23;20352;-86
2023/05/05 15:06:19;;;;;;;7.05;2.85;;;14.90;99.90;;;;;;6239308;23;20372;-86
2023/05/05 15:08:45;;;;;;;6.68;2.70;;;14.80;99.90;;;;;;6214687;23;20024;-86
2023/05/05 15:11:11;;;;;;;5.13;1.70;;;14.80;99.90;;;;;;6215240;23;20012;-86
2023/05/05 15:13:39;;;;;;;12.40;2.72;;;14.70;99.90;;;;;;6215652;23;20115;-85
2023/05/05 15:16:16;;;;;;;7.00;3.08;;;14.70;99.90;;;;;;6213900;23;20023;-86
2023/05/05 15:18:45;;;;;;;7.80;2.08;;;14.70;99.90;;;;;;6215571;23;20329;-85
2023/05/05 15:21:11;;;;;;;9.25;1.83;;;14.60;99.90;;;;;;6214320;23;20016;-86
2023/05/05 15:23:37;;;;;;;9.20;1.60;;;14.60;99.90;;;;;;6213357;23;20053;-85
2023/05/05 15:26:03;;;;;;;8.43;2.05;;;14.50;99.90;;;;;;6239127;23;20015;-84
2023/05/05 15:28:29;;;;;;;8.27;2.10;;;14.60;99.90;;;;;;6213585;23;20059;-83
2023/05/05 15:30:55;;;;;;;7.10;1.63;;;14.60;99.90;;;;;;6212177;23;20257;-85
2023/05/05 15:33:21;;;;;;;9.13;1.75;;;14.50;99.90;;;;;;6238795;23;20368;-85
2023/05/05 15:35:47;;;;;;;9.63;2.30;;;14.50;99.90;;;;;;6238200;23;20024;-85
2023/05/05 15:38:12;;;;;;;7.57;2.10;;;14.60;99.90;;;;;;6213603;23;20016;-84
2023/05/05 15:40:38;;;;;;;8.30;1.85;;;14.50;99.90;;;;;;6213899;23;20095;-84
2023/05/05 15:43:04;;;;;;;11.35;1.98;;;14.50;99.90;;;;;;6212937;23;20043;-84
2023/05/05 15:45:29;;;;;;;6.35;1.88;;;14.50;99.90;;;;;;6213361;23;20078;-84
2023/05/05 15:47:55;;;;;;;7.38;2.00;;;14.50;99.90;;;;;;6238402;23;20428;-86
2023/05/05 15:50:22;;;;;;;12.93;2.10;;;14.50;99.90;;;;;;6212149;23;20810;-86